sensor_id;sensor_type;location;lat;lon;timestamp;temperature;humidity
37232;DHT22;23125;48.156;15.954;2024-02-16T00:00:30;11.20;61.10
37232;DHT22;23125;48.156;15.954;2024-02-16T00:02:57;11.20;61.20
37232;DHT22;23125;48.156;15.954;2024-02-16T00:05:23;11.20;61.20
37232;DHT22;23125;48.156;15.954;2024-02-16T00:07:48;11.20;61.20
37232;DHT22;23125;48.156;15.954;2024-02-16T00:10:14;11.20;61.20
37232;DHT22;23125;48.156;15.954;2024-02-16T00:12:40;11.10;61.10
37232;DHT22;23125;48.156;15.954;2024-02-16T00:15:08;11.20;61.30
37232;DHT22;23125;48.156;15.954;2024-02-16T00:17:34;11.10;61.10
37232;DHT22;23125;48.156;15.954;2024-02-16T00:20:00;11.10;61.20
37232;DHT22;23125;48.156;15.954;2024-02-16T00:22:25;11.10;61.20
37232;DHT22;23125;48.156;15.954;2024-02-16T00:24:52;11.10;61.10
37232;DHT22;23125;48.156;15.954;2024-02-16T00:27:18;11.00;61.00
37232;DHT22;23125;48.156;15.954;2024-02-16T00:29:44;11.00;60.90
37232;DHT22;23125;48.156;15.954;2024-02-16T00:32:12;11.00;61.00
37232;DHT22;23125;48.156;15.954;2024-02-16T00:34:38;11.00;61.10
37232;DHT22;23125;48.156;15.954;2024-02-16T00:37:05;11.00;61.10
37232;DHT22;23125;48.156;15.954;2024-02-16T00:39:39;10.90;61.00
37232;DHT22;23125;48.156;15.954;2024-02-16T00:42:08;10.90;61.00
37232;DHT22;23125;48.156;15.954;2024-02-16T00:44:34;10.90;61.00
37232;DHT22;23125;48.156;15.954;2024-02-16T00:47:00;10.80;60.90
37232;DHT22;23125;48.156;15.954;2024-02-16T00:49:26;10.80;61.00
37232;DHT22;23125;48.156;15.954;2024-02-16T00:51:52;10.80;61.00
37232;DHT22;23125;48.156;15.954;2024-02-16T00:54:18;10.70;61.00
37232;DHT22;23125;48.156;15.954;2024-02-16T00:56:44;10.70;60.90
37232;DHT22;23125;48.156;15.954;2024-02-16T00:59:10;10.70;60.90
37232;DHT22;23125;48.156;15.954;2024-02-16T01:01:38;10.70;60.80
37232;DHT22;23125;48.156;15.954;2024-02-16T01:04:04;10.70;60.60
37232;DHT22;23125;48.156;15.954;2024-02-16T01:06:32;10.60;60.60
37232;DHT22;23125;48.156;15.954;2024-02-16T01:08:58;10.60;60.60
37232;DHT22;23125;48.156;15.954;2024-02-16T01:11:24;10.60;60.50
37232;DHT22;23125;48.156;15.954;2024-02-16T01:13:51;10.50;60.30
37232;DHT22;23125;48.156;15.954;2024-02-16T01:16:18;10.50;60.20
37232;DHT22;23125;48.156;15.954;2024-02-16T01:18:44;10.40;60.00
37232;DHT22;23125;48.156;15.954;2024-02-16T01:21:11;10.30;60.10
37232;DHT22;23125;48.156;15.954;2024-02-16T01:23:37;10.30;60.00
37232;DHT22;23125;48.156;15.954;2024-02-16T01:26:03;10.30;60.00
37232;DHT22;23125;48.156;15.954;2024-02-16T01:28:29;10.20;59.80
37232;DHT22;23125;48.156;15.954;2024-02-16T01:30:55;10.10;59.90
37232;DHT22;23125;48.156;15.954;2024-02-16T01:33:22;10.10;59.80
37232;DHT22;23125;48.156;15.954;2024-02-16T01:35:48;10.00;59.70
37232;DHT22;23125;48.156;15.954;2024-02-16T01:38:14;10.00;59.70
37232;DHT22;23125;48.156;15.954;2024-02-16T01:40:40;9.90;59.70
37232;DHT22;23125;48.156;15.954;2024-02-16T01:43:06;9.90;59.80
37232;DHT22;23125;48.156;15.954;2024-02-16T01:45:32;9.80;59.50
37232;DHT22;23125;48.156;15.954;2024-02-16T01:47:58;9.70;59.50
37232;DHT22;23125;48.156;15.954;2024-02-16T01:50:25;9.70;59.60
37232;DHT22;23125;48.156;15.954;2024-02-16T01:52:52;9.70;59.80
37232;DHT22;23125;48.156;15.954;2024-02-16T01:55:18;9.60;59.80
37232;DHT22;23125;48.156;15.954;2024-02-16T01:57:46;9.60;59.70
37232;DHT22;23125;48.156;15.954;2024-02-16T02:00:14;9.50;59.50
37232;DHT22;23125;48.156;15.954;2024-02-16T02:02:46;9.50;59.60
37232;DHT22;23125;48.156;15.954;2024-02-16T02:05:12;9.40;59.60
37232;DHT22;23125;48.156;15.954;2024-02-16T02:07:41;9.40;59.60
37232;DHT22;23125;48.156;15.954;2024-02-16T02:10:07;9.30;59.70
37232;DHT22;23125;48.156;15.954;2024-02-16T02:12:34;9.30;59.80
37232;DHT22;23125;48.156;15.954;2024-02-16T02:15:00;9.30;59.70
37232;DHT22;23125;48.156;15.954;2024-02-16T02:17:26;9.20;59.50
37232;DHT22;23125;48.156;15.954;2024-02-16T02:19:52;9.20;59.50
37232;DHT22;23125;48.156;15.954;2024-02-16T02:22:21;9.10;59.40
37232;DHT22;23125;48.156;15.954;2024-02-16T02:24:48;9.10;59.50
37232;DHT22;23125;48.156;15.954;2024-02-16T02:27:15;9.00;59.50
37232;DHT22;23125;48.156;15.954;2024-02-16T02:29:41;9.00;59.60
37232;DHT22;23125;48.156;15.954;2024-02-16T02:32:08;8.90;59.40
37232;DHT22;23125;48.156;15.954;2024-02-16T02:34:34;8.90;59.40
37232;DHT22;23125;48.156;15.954;2024-02-16T02:37:02;8.80;59.40
37232;DHT22;23125;48.156;15.954;2024-02-16T02:39:30;8.80;59.50
37232;DHT22;23125;48.156;15.954;2024-02-16T02:41:56;8.80;59.60
37232;DHT22;23125;48.156;15.954;2024-02-16T02:44:24;8.70;59.60
37232;DHT22;23125;48.156;15.954;2024-02-16T02:46:51;8.70;59.60
37232;DHT22;23125;48.156;15.954;2024-02-16T02:49:18;8.70;59.60
37232;DHT22;23125;48.156;15.954;2024-02-16T02:51:44;8.60;59.50
37232;DHT22;23125;48.156;15.954;2024-02-16T02:54:10;8.60;59.40
37232;DHT22;23125;48.156;15.954;2024-02-16T02:56:36;8.50;59.50
37232;DHT22;23125;48.156;15.954;2024-02-16T02:59:02;8.50;59.50
37232;DHT22;23125;48.156;15.954;2024-02-16T03:01:28;8.50;59.60
37232;DHT22;23125;48.156;15.954;2024-02-16T03:03:54;8.40;59.60
37232;DHT22;23125;48.156;15.954;2024-02-16T03:06:20;8.40;59.70
37232;DHT22;23125;48.156;15.954;2024-02-16T03:08:47;8.40;59.80
37232;DHT22;23125;48.156;15.954;2024-02-16T03:11:13;8.40;60.00
37232;DHT22;23125;48.156;15.954;2024-02-16T03:13:39;8.40;60.00
37232;DHT22;23125;48.156;15.954;2024-02-16T03:16:05;8.40;60.00
37232;DHT22;23125;48.156;15.954;2024-02-16T03:18:32;8.40;60.10
37232;DHT22;23125;48.156;15.954;2024-02-16T03:20:58;8.40;60.30
37232;DHT22;23125;48.156;15.954;2024-02-16T03:23:24;8.40;60.50
37232;DHT22;23125;48.156;15.954;2024-02-16T03:25:50;8.40;60.60
37232;DHT22;23125;48.156;15.954;2024-02-16T03:28:16;8.40;60.40
37232;DHT22;23125;48.156;15.954;2024-02-16T03:30:43;8.40;60.40
37232;DHT22;23125;48.156;15.954;2024-02-16T03:33:09;8.50;60.70
37232;DHT22;23125;48.156;15.954;2024-02-16T03:35:36;8.50;60.70
37232;DHT22;23125;48.156;15.954;2024-02-16T03:38:04;8.50;60.70
37232;DHT22;23125;48.156;15.954;2024-02-16T03:40:30;8.50;60.70
37232;DHT22;23125;48.156;15.954;2024-02-16T03:42:58;8.50;60.70
37232;DHT22;23125;48.156;15.954;2024-02-16T03:45:24;8.50;60.70
37232;DHT22;23125;48.156;15.954;2024-02-16T03:47:50;8.60;60.80
37232;DHT22;23125;48.156;15.954;2024-02-16T03:50:20;8.60;60.80
37232;DHT22;23125;48.156;15.954;2024-02-16T03:52:46;8.60;60.90
37232;DHT22;23125;48.156;15.954;2024-02-16T03:55:12;8.60;61.00
37232;DHT22;23125;48.156;15.954;2024-02-16T03:57:41;8.60;61.00
37232;DHT22;23125;48.156;15.954;2024-02-16T04:00:09;8.60;61.00
37232;DHT22;23125;48.156;15.954;2024-02-16T04:02:38;8.70;61.00
37232;DHT22;23125;48.156;15.954;2024-02-16T04:05:05;8.70;60.90
37232;DHT22;23125;48.156;15.954;2024-02-16T04:07:34;8.60;60.80
37232;DHT22;23125;48.156;15.954;2024-02-16T04:10:00;8.70;61.10
37232;DHT22;23125;48.156;15.954;2024-02-16T04:12:26;8.70;61.10
37232;DHT22;23125;48.156;15.954;2024-02-16T04:14:52;8.70;61.10
37232;DHT22;23125;48.156;15.954;2024-02-16T04:17:18;8.70;61.10
37232;DHT22;23125;48.156;15.954;2024-02-16T04:19:44;8.70;61.20
37232;DHT22;23125;48.156;15.954;2024-02-16T04:22:10;8.70;61.20
37232;DHT22;23125;48.156;15.954;2024-02-16T04:24:36;8.80;61.30
37232;DHT22;23125;48.156;15.954;2024-02-16T04:27:02;8.70;61.10
37232;DHT22;23125;48.156;15.954;2024-02-16T04:29:27;8.80;61.40
37232;DHT22;23125;48.156;15.954;2024-02-16T04:31:53;8.80;61.30
37232;DHT22;23125;48.156;15.954;2024-02-16T04:34:19;8.80;61.30
37232;DHT22;23125;48.156;15.954;2024-02-16T04:36:45;8.80;61.30
37232;DHT22;23125;48.156;15.954;2024-02-16T04:39:11;8.80;61.20
37232;DHT22;23125;48.156;15.954;2024-02-16T04:41:37;8.80;61.30
37232;DHT22;23125;48.156;15.954;2024-02-16T04:44:04;8.80;61.20
37232;DHT22;23125;48.156;15.954;2024-02-16T04:46:30;8.80;61.30
37232;DHT22;23125;48.156;15.954;2024-02-16T04:48:55;8.80;61.30
37232;DHT22;23125;48.156;15.954;2024-02-16T04:51:21;8.80;61.30
37232;DHT22;23125;48.156;15.954;2024-02-16T04:53:47;8.80;61.30
37232;DHT22;23125;48.156;15.954;2024-02-16T04:56:14;8.70;61.40
37232;DHT22;23125;48.156;15.954;2024-02-16T04:58:43;8.70;61.40
37232;DHT22;23125;48.156;15.954;2024-02-16T05:01:09;8.70;61.60
37232;DHT22;23125;48.156;15.954;2024-02-16T05:03:35;8.70;61.60
37232;DHT22;23125;48.156;15.954;2024-02-16T05:06:01;8.60;61.50
37232;DHT22;23125;48.156;15.954;2024-02-16T05:08:27;8.60;61.70
37232;DHT22;23125;48.156;15.954;2024-02-16T05:10:53;8.60;61.90
37232;DHT22;23125;48.156;15.954;2024-02-16T05:13:19;8.60;61.80
37232;DHT22;23125;48.156;15.954;2024-02-16T05:15:45;8.60;61.90
37232;DHT22;23125;48.156;15.954;2024-02-16T05:18:13;8.60;62.10
37232;DHT22;23125;48.156;15.954;2024-02-16T05:20:40;8.60;62.00
37232;DHT22;23125;48.156;15.954;2024-02-16T05:23:06;8.60;62.00
37232;DHT22;23125;48.156;15.954;2024-02-16T05:25:32;8.60;61.70
37232;DHT22;23125;48.156;15.954;2024-02-16T05:27:57;8.60;61.50
37232;DHT22;23125;48.156;15.954;2024-02-16T05:30:24;8.60;61.80
37232;DHT22;23125;48.156;15.954;2024-02-16T05:32:50;8.60;62.10
37232;DHT22;23125;48.156;15.954;2024-02-16T05:35:18;8.60;62.30
37232;DHT22;23125;48.156;15.954;2024-02-16T05:37:46;8.60;62.40
37232;DHT22;23125;48.156;15.954;2024-02-16T05:40:17;8.70;62.50
37232;DHT22;23125;48.156;15.954;2024-02-16T05:42:55;8.70;62.30
37232;DHT22;23125;48.156;15.954;2024-02-16T05:45:24;8.70;62.20
37232;DHT22;23125;48.156;15.954;2024-02-16T05:47:53;8.70;62.10
37232;DHT22;23125;48.156;15.954;2024-02-16T05:50:21;8.70;62.20
37232;DHT22;23125;48.156;15.954;2024-02-16T05:52:47;8.70;62.40
37232;DHT22;23125;48.156;15.954;2024-02-16T05:55:15;8.70;62.40
37232;DHT22;23125;48.156;15.954;2024-02-16T05:57:44;8.70;62.50
37232;DHT22;23125;48.156;15.954;2024-02-16T06:00:11;8.70;62.50
37232;DHT22;23125;48.156;15.954;2024-02-16T06:02:39;8.70;62.60
37232;DHT22;23125;48.156;15.954;2024-02-16T06:05:05;8.80;62.50
37232;DHT22;23125;48.156;15.954;2024-02-16T06:07:31;8.70;62.40
37232;DHT22;23125;48.156;15.954;2024-02-16T06:09:57;8.70;62.20
37232;DHT22;23125;48.156;15.954;2024-02-16T06:12:24;8.70;62.10
37232;DHT22;23125;48.156;15.954;2024-02-16T06:14:50;8.70;62.20
37232;DHT22;23125;48.156;15.954;2024-02-16T06:17:17;8.70;62.30
37232;DHT22;23125;48.156;15.954;2024-02-16T06:19:43;8.70;62.40
37232;DHT22;23125;48.156;15.954;2024-02-16T06:22:09;8.70;62.50
37232;DHT22;23125;48.156;15.954;2024-02-16T06:24:36;8.70;62.70
37232;DHT22;23125;48.156;15.954;2024-02-16T06:27:03;8.70;62.70
37232;DHT22;23125;48.156;15.954;2024-02-16T06:29:30;8.80;63.00
37232;DHT22;23125;48.156;15.954;2024-02-16T06:31:56;8.80;63.00
37232;DHT22;23125;48.156;15.954;2024-02-16T06:34:23;8.80;62.90
37232;DHT22;23125;48.156;15.954;2024-02-16T06:36:49;8.80;62.90
37232;DHT22;23125;48.156;15.954;2024-02-16T06:39:16;8.80;62.90
37232;DHT22;23125;48.156;15.954;2024-02-16T06:41:47;8.80;62.80
37232;DHT22;23125;48.156;15.954;2024-02-16T06:44:13;8.80;62.80
37232;DHT22;23125;48.156;15.954;2024-02-16T06:46:41;8.80;62.80
37232;DHT22;23125;48.156;15.954;2024-02-16T06:49:07;8.90;63.00
37232;DHT22;23125;48.156;15.954;2024-02-16T06:51:33;8.90;62.90
37232;DHT22;23125;48.156;15.954;2024-02-16T06:53:59;8.90;63.00
37232;DHT22;23125;48.156;15.954;2024-02-16T06:56:26;8.90;63.20
37232;DHT22;23125;48.156;15.954;2024-02-16T06:58:52;8.90;63.20
37232;DHT22;23125;48.156;15.954;2024-02-16T07:01:19;9.00;63.20
37232;DHT22;23125;48.156;15.954;2024-02-16T07:03:45;9.00;63.10
37232;DHT22;23125;48.156;15.954;2024-02-16T07:06:12;9.00;63.00
37232;DHT22;23125;48.156;15.954;2024-02-16T07:08:43;9.00;62.90
37232;DHT22;23125;48.156;15.954;2024-02-16T07:11:09;9.00;63.00
37232;DHT22;23125;48.156;15.954;2024-02-16T07:13:39;9.00;63.00
37232;DHT22;23125;48.156;15.954;2024-02-16T07:16:06;9.00;63.10
37232;DHT22;23125;48.156;15.954;2024-02-16T07:18:35;9.00;63.30
37232;DHT22;23125;48.156;15.954;2024-02-16T07:21:01;9.00;63.50
37232;DHT22;23125;48.156;15.954;2024-02-16T07:23:28;9.00;63.50
37232;DHT22;23125;48.156;15.954;2024-02-16T07:25:55;9.10;63.60
37232;DHT22;23125;48.156;15.954;2024-02-16T07:28:24;9.20;63.70
37232;DHT22;23125;48.156;15.954;2024-02-16T07:30:51;9.20;63.70
37232;DHT22;23125;48.156;15.954;2024-02-16T07:33:17;9.20;63.70
37232;DHT22;23125;48.156;15.954;2024-02-16T07:35:43;9.20;63.80
37232;DHT22;23125;48.156;15.954;2024-02-16T07:38:10;9.30;63.80
37232;DHT22;23125;48.156;15.954;2024-02-16T07:40:36;9.30;63.80
37232;DHT22;23125;48.156;15.954;2024-02-16T07:43:03;9.40;63.90
37232;DHT22;23125;48.156;15.954;2024-02-16T07:45:30;9.40;64.00
37232;DHT22;23125;48.156;15.954;2024-02-16T07:47:56;9.50;63.80
37232;DHT22;23125;48.156;15.954;2024-02-16T07:50:23;9.50;63.60
37232;DHT22;23125;48.156;15.954;2024-02-16T07:52:50;9.50;63.60
37232;DHT22;23125;48.156;15.954;2024-02-16T07:55:17;9.50;63.70
37232;DHT22;23125;48.156;15.954;2024-02-16T07:57:46;9.60;63.90
37232;DHT22;23125;48.156;15.954;2024-02-16T08:00:13;9.50;63.60
37232;DHT22;23125;48.156;15.954;2024-02-16T08:02:42;9.60;63.80
37232;DHT22;23125;48.156;15.954;2024-02-16T08:05:11;9.60;64.00
37232;DHT22;23125;48.156;15.954;2024-02-16T08:07:39;9.70;64.20
37232;DHT22;23125;48.156;15.954;2024-02-16T08:10:09;9.70;64.00
37232;DHT22;23125;48.156;15.954;2024-02-16T08:12:35;9.80;64.30
37232;DHT22;23125;48.156;15.954;2024-02-16T08:15:05;9.80;64.40
37232;DHT22;23125;48.156;15.954;2024-02-16T08:17:36;9.90;64.50
37232;DHT22;23125;48.156;15.954;2024-02-16T08:20:03;10.00;64.40
37232;DHT22;23125;48.156;15.954;2024-02-16T08:22:30;10.00;64.30
37232;DHT22;23125;48.156;15.954;2024-02-16T08:24:56;10.10;64.40
37232;DHT22;23125;48.156;15.954;2024-02-16T08:27:22;10.20;64.20
37232;DHT22;23125;48.156;15.954;2024-02-16T08:29:48;10.20;64.30
37232;DHT22;23125;48.156;15.954;2024-02-16T08:32:14;10.20;64.10
37232;DHT22;23125;48.156;15.954;2024-02-16T08:34:42;10.30;64.40
37232;DHT22;23125;48.156;15.954;2024-02-16T08:37:07;10.40;64.30
37232;DHT22;23125;48.156;15.954;2024-02-16T08:39:34;10.40;64.20
37232;DHT22;23125;48.156;15.954;2024-02-16T08:42:01;10.50;64.60
37232;DHT22;23125;48.156;15.954;2024-02-16T08:44:27;10.60;64.90
37232;DHT22;23125;48.156;15.954;2024-02-16T08:46:53;10.70;64.70
37232;DHT22;23125;48.156;15.954;2024-02-16T08:49:20;10.70;64.70
37232;DHT22;23125;48.156;15.954;2024-02-16T08:51:47;10.80;64.70
37232;DHT22;23125;48.156;15.954;2024-02-16T08:54:13;10.90;64.50
37232;DHT22;23125;48.156;15.954;2024-02-16T08:56:40;11.00;64.30
37232;DHT22;23125;48.156;15.954;2024-02-16T08:59:06;11.00;64.10
37232;DHT22;23125;48.156;15.954;2024-02-16T09:01:33;11.00;64.10
37232;DHT22;23125;48.156;15.954;2024-02-16T09:03:59;11.10;64.20
37232;DHT22;23125;48.156;15.954;2024-02-16T09:06:27;11.20;64.30
37232;DHT22;23125;48.156;15.954;2024-02-16T09:08:53;11.20;64.10
37232;DHT22;23125;48.156;15.954;2024-02-16T09:11:19;11.30;64.30
37232;DHT22;23125;48.156;15.954;2024-02-16T09:13:46;11.30;64.30
37232;DHT22;23125;48.156;15.954;2024-02-16T09:16:12;11.40;64.50
37232;DHT22;23125;48.156;15.954;2024-02-16T09:18:37;11.50;64.20
37232;DHT22;23125;48.156;15.954;2024-02-16T09:21:04;11.60;64.40
37232;DHT22;23125;48.156;15.954;2024-02-16T09:23:35;11.60;64.40
37232;DHT22;23125;48.156;15.954;2024-02-16T09:26:02;11.70;64.30
37232;DHT22;23125;48.156;15.954;2024-02-16T09:28:29;11.80;64.30
37232;DHT22;23125;48.156;15.954;2024-02-16T09:30:58;11.80;64.10
37232;DHT22;23125;48.156;15.954;2024-02-16T09:33:24;11.90;63.90
37232;DHT22;23125;48.156;15.954;2024-02-16T09:35:52;12.00;64.10
37232;DHT22;23125;48.156;15.954;2024-02-16T09:38:19;12.10;64.00
37232;DHT22;23125;48.156;15.954;2024-02-16T09:40:45;12.10;64.10
37232;DHT22;23125;48.156;15.954;2024-02-16T09:43:24;12.20;64.10
37232;DHT22;23125;48.156;15.954;2024-02-16T09:45:53;12.30;64.30
37232;DHT22;23125;48.156;15.954;2024-02-16T09:48:21;12.40;64.40
37232;DHT22;23125;48.156;15.954;2024-02-16T09:50:50;12.60;64.50
37232;DHT22;23125;48.156;15.954;2024-02-16T09:53:17;12.70;64.40
37232;DHT22;23125;48.156;15.954;2024-02-16T09:55:49;12.80;64.30
37232;DHT22;23125;48.156;15.954;2024-02-16T09:58:17;12.80;64.00
37232;DHT22;23125;48.156;15.954;2024-02-16T10:00:55;12.90;63.90
37232;DHT22;23125;48.156;15.954;2024-02-16T10:06:03;13.20;64.60
37232;DHT22;23125;48.156;15.954;2024-02-16T10:08:29;13.30;64.10
37232;DHT22;23125;48.156;15.954;2024-02-16T10:11:04;13.40;63.80
37232;DHT22;23125;48.156;15.954;2024-02-16T10:13:34;13.50;63.70
37232;DHT22;23125;48.156;15.954;2024-02-16T10:16:05;13.70;63.90
37232;DHT22;23125;48.156;15.954;2024-02-16T10:18:31;13.90;63.70
37232;DHT22;23125;48.156;15.954;2024-02-16T10:20:57;14.00;63.00
37232;DHT22;23125;48.156;15.954;2024-02-16T10:23:23;14.00;62.30
37232;DHT22;23125;48.156;15.954;2024-02-16T10:25:49;14.20;62.50
37232;DHT22;23125;48.156;15.954;2024-02-16T10:28:15;14.30;62.60
37232;DHT22;23125;48.156;15.954;2024-02-16T10:30:43;14.40;62.60
37232;DHT22;23125;48.156;15.954;2024-02-16T10:33:11;14.60;62.40
37232;DHT22;23125;48.156;15.954;2024-02-16T10:35:38;14.70;62.30
37232;DHT22;23125;48.156;15.954;2024-02-16T10:38:06;14.90;62.20
37232;DHT22;23125;48.156;15.954;2024-02-16T10:40:41;15.00;61.20
37232;DHT22;23125;48.156;15.954;2024-02-16T10:43:08;15.10;60.70
37232;DHT22;23125;48.156;15.954;2024-02-16T10:45:39;15.20;60.80
37232;DHT22;23125;48.156;15.954;2024-02-16T10:48:07;15.30;60.90
37232;DHT22;23125;48.156;15.954;2024-02-16T10:50:35;15.40;60.40
37232;DHT22;23125;48.156;15.954;2024-02-16T10:53:15;15.60;60.50
37232;DHT22;23125;48.156;15.954;2024-02-16T10:55:43;15.70;59.90
37232;DHT22;23125;48.156;15.954;2024-02-16T10:58:11;15.80;59.60
37232;DHT22;23125;48.156;15.954;2024-02-16T11:03:17;16.00;59.00
37232;DHT22;23125;48.156;15.954;2024-02-16T11:05:44;16.10;58.60
37232;DHT22;23125;48.156;15.954;2024-02-16T11:08:15;16.20;58.80
37232;DHT22;23125;48.156;15.954;2024-02-16T11:11:00;16.40;59.10
37232;DHT22;23125;48.156;15.954;2024-02-16T11:13:28;16.40;58.00
37232;DHT22;23125;48.156;15.954;2024-02-16T11:16:02;16.50;57.90
37232;DHT22;23125;48.156;15.954;2024-02-16T11:18:30;16.60;57.40
37232;DHT22;23125;48.156;15.954;2024-02-16T11:21:01;16.60;57.50
37232;DHT22;23125;48.156;15.954;2024-02-16T11:23:29;16.70;57.50
37232;DHT22;23125;48.156;15.954;2024-02-16T11:26:00;16.80;56.80
37232;DHT22;23125;48.156;15.954;2024-02-16T11:28:27;16.90;56.60
37232;DHT22;23125;48.156;15.954;2024-02-16T11:30:54;16.90;56.50
37232;DHT22;23125;48.156;15.954;2024-02-16T11:33:20;17.00;56.20
37232;DHT22;23125;48.156;15.954;2024-02-16T11:35:56;17.00;56.20
37232;DHT22;23125;48.156;15.954;2024-02-16T11:38:24;17.00;56.20
37232;DHT22;23125;48.156;15.954;2024-02-16T11:41:02;17.10;55.70
37232;DHT22;23125;48.156;15.954;2024-02-16T11:43:30;17.10;55.70
37232;DHT22;23125;48.156;15.954;2024-02-16T11:45:56;17.20;55.80
37232;DHT22;23125;48.156;15.954;2024-02-16T11:48:23;17.30;55.60
37232;DHT22;23125;48.156;15.954;2024-02-16T11:50:58;17.40;55.70
37232;DHT22;23125;48.156;15.954;2024-02-16T11:53:24;17.50;55.20
37232;DHT22;23125;48.156;15.954;2024-02-16T11:55:50;17.60;55.00
37232;DHT22;23125;48.156;15.954;2024-02-16T11:58:17;17.70;55.40
37232;DHT22;23125;48.156;15.954;2024-02-16T12:00:48;17.70;54.30
37232;DHT22;23125;48.156;15.954;2024-02-16T12:03:19;17.70;53.90
37232;DHT22;23125;48.156;15.954;2024-02-16T12:05:56;17.70;53.70
37232;DHT22;23125;48.156;15.954;2024-02-16T12:08:23;17.70;53.70
37232;DHT22;23125;48.156;15.954;2024-02-16T12:10:50;17.70;53.20
37232;DHT22;23125;48.156;15.954;2024-02-16T12:13:18;17.60;53.00
37232;DHT22;23125;48.156;15.954;2024-02-16T12:15:50;17.60;52.70
37232;DHT22;23125;48.156;15.954;2024-02-16T12:18:24;17.50;52.60
37232;DHT22;23125;48.156;15.954;2024-02-16T12:21:04;17.40;52.40
37232;DHT22;23125;48.156;15.954;2024-02-16T12:23:32;17.30;52.70
37232;DHT22;23125;48.156;15.954;2024-02-16T12:25:59;17.30;52.50
37232;DHT22;23125;48.156;15.954;2024-02-16T12:28:27;17.20;53.20
37232;DHT22;23125;48.156;15.954;2024-02-16T12:30:55;17.20;52.70
37232;DHT22;23125;48.156;15.954;2024-02-16T12:33:25;17.00;52.40
37232;DHT22;23125;48.156;15.954;2024-02-16T12:35:52;17.00;52.50
37232;DHT22;23125;48.156;15.954;2024-02-16T12:38:18;16.90;52.50
37232;DHT22;23125;48.156;15.954;2024-02-16T12:40:46;16.80;52.60
37232;DHT22;23125;48.156;15.954;2024-02-16T12:43:12;16.80;52.80
37232;DHT22;23125;48.156;15.954;2024-02-16T12:45:40;16.80;52.80
37232;DHT22;23125;48.156;15.954;2024-02-16T12:48:06;16.70;52.80
37232;DHT22;23125;48.156;15.954;2024-02-16T12:50:32;16.70;52.80
37232;DHT22;23125;48.156;15.954;2024-02-16T12:52:59;16.70;52.90
37232;DHT22;23125;48.156;15.954;2024-02-16T12:55:25;16.60;53.00
37232;DHT22;23125;48.156;15.954;2024-02-16T12:57:51;16.60;52.90
37232;DHT22;23125;48.156;15.954;2024-02-16T13:00:17;16.50;52.90
37232;DHT22;23125;48.156;15.954;2024-02-16T13:02:43;16.50;53.00
37232;DHT22;23125;48.156;15.954;2024-02-16T13:05:09;16.50;53.10
37232;DHT22;23125;48.156;15.954;2024-02-16T13:07:37;16.40;53.20
37232;DHT22;23125;48.156;15.954;2024-02-16T13:10:10;16.40;53.20
37232;DHT22;23125;48.156;15.954;2024-02-16T13:12:37;16.40;53.30
37232;DHT22;23125;48.156;15.954;2024-02-16T13:15:04;16.40;53.30
37232;DHT22;23125;48.156;15.954;2024-02-16T13:17:32;16.40;53.30
37232;DHT22;23125;48.156;15.954;2024-02-16T13:19:59;16.40;53.90
37232;DHT22;23125;48.156;15.954;2024-02-16T13:22:38;16.40;53.50
37232;DHT22;23125;48.156;15.954;2024-02-16T13:25:05;16.40;53.50
37232;DHT22;23125;48.156;15.954;2024-02-16T13:27:35;16.40;53.60
37232;DHT22;23125;48.156;15.954;2024-02-16T13:30:01;16.40;53.60
37232;DHT22;23125;48.156;15.954;2024-02-16T13:32:27;16.40;53.70
37232;DHT22;23125;48.156;15.954;2024-02-16T13:34:53;16.40;53.70
37232;DHT22;23125;48.156;15.954;2024-02-16T13:37:19;16.40;53.50
37232;DHT22;23125;48.156;15.954;2024-02-16T13:39:45;16.40;53.30
37232;DHT22;23125;48.156;15.954;2024-02-16T13:42:12;16.50;52.40
37232;DHT22;23125;48.156;15.954;2024-02-16T13:44:39;16.50;52.50
37232;DHT22;23125;48.156;15.954;2024-02-16T13:47:05;16.60;52.40
37232;DHT22;23125;48.156;15.954;2024-02-16T13:49:31;16.70;51.90
37232;DHT22;23125;48.156;15.954;2024-02-16T13:51:57;16.80;52.00
37232;DHT22;23125;48.156;15.954;2024-02-16T13:54:25;16.80;51.40
37232;DHT22;23125;48.156;15.954;2024-02-16T13:56:51;16.90;51.50
37232;DHT22;23125;48.156;15.954;2024-02-16T13:59:19;16.90;51.20
37232;DHT22;23125;48.156;15.954;2024-02-16T14:01:46;17.00;51.10
37232;DHT22;23125;48.156;15.954;2024-02-16T14:04:13;17.00;50.20
37232;DHT22;23125;48.156;15.954;2024-02-16T14:06:40;17.00;49.90
37232;DHT22;23125;48.156;15.954;2024-02-16T14:09:06;17.10;49.70
37232;DHT22;23125;48.156;15.954;2024-02-16T14:11:36;17.10;49.50
37232;DHT22;23125;48.156;15.954;2024-02-16T14:14:02;17.10;48.90
37232;DHT22;23125;48.156;15.954;2024-02-16T14:16:29;17.20;48.90
37232;DHT22;23125;48.156;15.954;2024-02-16T14:18:56;17.20;49.00
37232;DHT22;23125;48.156;15.954;2024-02-16T14:21:22;17.20;48.80
37232;DHT22;23125;48.156;15.954;2024-02-16T14:23:48;17.30;48.70
37232;DHT22;23125;48.156;15.954;2024-02-16T14:26:14;17.30;48.70
37232;DHT22;23125;48.156;15.954;2024-02-16T14:28:40;17.30;48.30
37232;DHT22;23125;48.156;15.954;2024-02-16T14:31:06;17.30;48.30
37232;DHT22;23125;48.156;15.954;2024-02-16T14:33:32;17.30;48.50
37232;DHT22;23125;48.156;15.954;2024-02-16T14:35:58;17.30;48.50
37232;DHT22;23125;48.156;15.954;2024-02-16T14:38:24;17.20;48.20
37232;DHT22;23125;48.156;15.954;2024-02-16T14:40:50;17.30;48.40
37232;DHT22;23125;48.156;15.954;2024-02-16T14:43:16;17.20;48.00
37232;DHT22;23125;48.156;15.954;2024-02-16T14:45:42;17.20;48.20
37232;DHT22;23125;48.156;15.954;2024-02-16T14:48:08;17.20;48.20
37232;DHT22;23125;48.156;15.954;2024-02-16T14:50:37;17.10;48.10
37232;DHT22;23125;48.156;15.954;2024-02-16T14:53:03;17.10;48.10
37232;DHT22;23125;48.156;15.954;2024-02-16T14:55:30;17.10;48.10
37232;DHT22;23125;48.156;15.954;2024-02-16T14:57:56;17.10;48.10
37232;DHT22;23125;48.156;15.954;2024-02-16T15:00:22;17.00;48.10
37232;DHT22;23125;48.156;15.954;2024-02-16T15:02:50;17.00;48.10
37232;DHT22;23125;48.156;15.954;2024-02-16T15:05:17;17.00;48.20
37232;DHT22;23125;48.156;15.954;2024-02-16T15:07:43;16.90;48.10
37232;DHT22;23125;48.156;15.954;2024-02-16T15:10:09;16.90;48.20
37232;DHT22;23125;48.156;15.954;2024-02-16T15:12:36;16.90;48.30
37232;DHT22;23125;48.156;15.954;2024-02-16T15:15:04;16.90;48.20
37232;DHT22;23125;48.156;15.954;2024-02-16T15:17:30;16.80;48.30
37232;DHT22;23125;48.156;15.954;2024-02-16T15:19:56;16.80;48.20
37232;DHT22;23125;48.156;15.954;2024-02-16T15:22:22;16.80;48.20
37232;DHT22;23125;48.156;15.954;2024-02-16T15:24:48;16.80;48.30
37232;DHT22;23125;48.156;15.954;2024-02-16T15:27:14;16.70;48.20